AirNav   Everest Fuels
 
 1437 users online  

MU28 Mercy Health Cassville Heliport
Cassville, Missouri, USA

GOING TO CASSVILLE?


FAA INFORMATION EFFECTIVE 05 DECEMBER 2019

Location

FAA Identifier: MU28
Lat/Long: 36-40-30.8500N 093-52-19.9200W
36-40.514167N 093-52.332000W
36.6752361,-93.8722000
(estimated)
Elevation: 1314 ft. / 401 m (estimated)
Time zone: UTC -6 (UTC -5 during Daylight Saving Time)
Zip code: 65625

Heliport Operations

Heliport use: Private use. Permission required prior to landing
Activation date: 06/2017
Control tower: no
ARTCC: KANSAS CITY CENTER
FSS: COLUMBIA FLIGHT SERVICE STATION
Attendance: UNATNDD
Wind indicator: yes
Segmented circle: no

Heliport Communications

WX AWOS-3 at HFJ (15 nm NW): 118.275 (417-476-2613)

Nearby radio navigation aids

VOR radial/distance  VOR name  Freq  Var
RZCr021/28.4RAZORBACK VORTAC116.4004E
EOSr103/28.9NEOSHO VOR/DME117.3007E
HROr300/38.3HARRISON VOR/DME112.5004E

Heliport Services

Runway Information

Helipad H1

Dimensions: 40 x 40 ft. / 12 x 12 m
Surface: concrete
Traffic pattern: leftleft

Heliport Ownership and Management from official FAA records

Ownership: Privately-owned
Owner: MERCY HEALTH CASSVILLE
94 MAIN STREET
CASSVILLE, MO 65625
Phone 417-847-6000
Manager: MICHAEL EPLEY
550 PORTER AVE.
AURORA, MO 65605
Phone 417-678-7838

Additional Remarks

FOR CD CTC SPRINGFIELD APCH AT 417-868-5620/5619.

Instrument Procedures

There are no published instrument procedures at MU28.

Some nearby airports with instrument procedures:

94K - Cassville Municipal Airport (2 nm NW)
KHFJ - Monett Regional Airport (15 nm NW)
2H2 - Jerry Sumners Sr. Aurora Municipal Airport (19 nm NE)
4M1 - Carroll County Airport (21 nm SE)
KROG - Rogers Executive Airport - Carter Field (21 nm SW)
 
Loc | Ops | Rwys | IFR | FBO | Links
Com | Nav | Svcs | Stats | Notes
Aerial photo
No photo
 
Airport distance calculator
Flying to Mercy Health Cassville Heliport? Find the distance to fly.

From to MU28

Sunrise and sunset
Times for 06-Dec-2019
 Local
(UTC-6)
 Zulu
(UTC)
Morning civil twilight06:4612:46
Sunrise07:1513:15
Sunset16:5822:58
Evening civil twilight17:2723:27

Current date and time
Zulu (UTC)  06-Dec-2019 16:56:27
Local (UTC-6)  06-Dec-2019 10:56:27
 
METAR
KHFJ 
15nm NW 
061635Z AUTO 36013G17KT 10SM SCT015 08/01 A3026 RMK AO2
KROG 
21nm SW 
061558Z 36010G16KT 10SM CLR 08/03 A3022 RMK AO2 SLP233 T00780028
KFWB 
23nm E 
061615Z AUTO 35011G17KT 330V040 10SM CLR 08/03 A3021 RMK AO2 PWINO PNO
KVBT 
26nm SW 
061556Z AUTO 36013G18KT 10SM CLR 08/03 A3024 RMK AO2 SLP243 T00780028 TSNO
TAF
KROG 
21nm SW 
061130Z 0612/0712 36005KT P6SM BKN050 FM061500 36012KT P6SM SCT025 TEMPO 0617/0621 BKN025 FM070000 04005KT P6SM SCT035
NOTAMs
Click for the latest NOTAMs
NOTAMs are issued by the DoD/FAA and will open in a separate window not controlled by AirNav.

 

 
 

Would you like to see your business listed on this page?

 If your business provides an interesting product or service to pilots, flight crews, aircraft, or users of the Mercy Health Cassville Heliport, you should consider listing it here.  To start the listing process, click on the button below
 
Add a business
 

Other Pages about Mercy Health Cassville Heliport

Update a link
 
Copyright © AirNav, LLC. All rights reserved. Privacy Policy  Contact